Time;durP1;ratioP1;P1;durP2;ratioP2;P2;SDS_P1;SDS_P2;PMS_P1;PMS_P2;Temp;Humidity;BMP_temperature;BMP_pressure;BME280_temperature;BME280_humidity;BME280_pressure;Samples;Min_cycle;Max_cycle;Signal;HPM_P1;HPM_P2
2022/12/04 00:01:18;;;;;;;19.13;14.73;;;16.70;57.70;;;;;;5033591;28;20187;-65
2022/12/04 00:03:44;;;;;;;18.42;15.82;;;16.70;57.70;;;;;;5033243;28;20186;-65
2022/12/04 00:06:15;;;;;;;19.83;15.63;;;16.70;57.70;;;;;;5033635;28;20171;-65
2022/12/04 00:08:41;;;;;;;18.05;15.90;;;16.70;57.50;;;;;;5048645;28;20179;-65
2022/12/04 00:11:07;;;;;;;17.80;15.40;;;16.60;58.20;;;;;;5053106;28;20365;-65
2022/12/04 00:13:33;;;;;;;19.30;16.00;;;16.60;57.60;;;;;;5053088;28;20215;-65
2022/12/04 00:15:59;;;;;;;18.35;15.02;;;16.60;57.60;;;;;;5052794;28;20179;-65
2022/12/04 00:18:25;;;;;;;18.55;15.82;;;16.60;57.60;;;;;;5038860;28;20255;-65
2022/12/04 00:20:50;;;;;;;17.50;15.13;;;16.60;57.60;;;;;;5033105;28;20207;-65
2022/12/04 00:23:16;;;;;;;17.08;15.27;;;16.50;57.70;;;;;;5032650;28;20175;-66
2022/12/04 00:25:41;;;;;;;19.98;17.33;;;16.60;57.60;;;;;;5033033;28;20180;-66
2022/12/04 00:28:07;;;;;;;18.67;15.52;;;16.50;57.60;;;;;;5044267;28;20175;-65
2022/12/04 00:30:33;;;;;;;22.73;16.33;;;16.50;57.60;;;;;;5052240;28;20201;-65
2022/12/04 00:32:58;;;;;;;19.88;16.00;;;16.50;57.50;;;;;;5053249;28;20175;-65
2022/12/04 00:35:24;;;;;;;17.33;15.52;;;16.50;57.60;;;;;;5053082;28;20207;-66
2022/12/04 00:37:50;;;;;;;18.63;16.42;;;16.40;57.40;;;;;;5042809;28;20183;-65
2022/12/04 00:40:15;;;;;;;19.63;16.48;;;16.40;57.50;;;;;;5033069;28;20604;-65
2022/12/04 00:42:41;;;;;;;20.00;16.27;;;16.40;57.40;;;;;;5032680;28;20164;-65
2022/12/04 00:45:06;;;;;;;20.88;16.65;;;16.50;57.60;;;;;;5032429;28;20229;-64
2022/12/04 00:47:32;;;;;;;18.85;16.42;;;16.40;57.40;;;;;;5051532;28;20221;-65
2022/12/04 00:49:57;;;;;;;18.70;16.40;;;16.40;57.50;;;;;;5053091;28;20225;-65
2022/12/04 00:52:23;;;;;;;20.30;17.08;;;16.40;57.40;;;;;;5051904;28;20228;-65
2022/12/04 00:54:48;;;;;;;20.40;17.23;;;16.40;57.40;;;;;;5051871;28;20574;-65
2022/12/04 00:57:14;;;;;;;19.70;15.75;;;16.30;57.50;;;;;;5036027;28;20656;-65
2022/12/04 00:59:39;;;;;;;19.02;16.25;;;16.30;57.50;;;;;;5031840;28;20187;-65
2022/12/04 01:02:05;;;;;;;18.63;15.55;;;16.30;57.30;;;;;;5032936;28;20180;-64
2022/12/04 01:04:30;;;;;;;19.05;15.85;;;16.30;57.40;;;;;;5031715;28;20180;-65
2022/12/04 01:06:56;;;;;;;19.23;16.90;;;16.30;57.60;;;;;;5045727;28;20163;-65
2022/12/04 01:09:21;;;;;;;19.70;16.52;;;16.30;57.50;;;;;;5052799;28;20191;-65
2022/12/04 01:11:47;;;;;;;21.52;17.13;;;16.20;57.50;;;;;;5051741;28;20198;-65
2022/12/04 01:14:12;;;;;;;20.05;16.88;;;16.20;57.30;;;;;;5052513;28;20695;-65
2022/12/04 01:16:38;;;;;;;19.45;16.13;;;16.20;57.30;;;;;;5050195;28;20179;-65
2022/12/04 01:19:05;;;;;;;20.60;17.05;;;16.20;57.30;;;;;;5051410;28;20230;-65
2022/12/04 01:21:31;;;;;;;19.27;17.27;;;16.20;58.10;;;;;;5052348;28;20183;-65
2022/12/04 01:23:57;;;;;;;18.42;16.40;;;16.20;57.20;;;;;;5052581;28;20174;-65
2022/12/04 01:26:23;;;;;;;19.75;16.98;;;16.20;57.30;;;;;;5044315;28;20187;-65
2022/12/04 01:28:48;;;;;;;19.67;17.52;;;16.20;57.30;;;;;;5034422;28;21076;-66
2022/12/04 01:31:15;;;;;;;18.92;16.75;;;16.20;57.20;;;;;;5052001;28;20226;-65
2022/12/04 01:33:41;;;;;;;18.33;16.20;;;16.20;57.20;;;;;;5051491;28;20218;-65
2022/12/04 01:36:08;;;;;;;19.25;16.70;;;16.20;57.30;;;;;;5047488;28;20180;-65
2022/12/04 01:38:34;;;;;;;19.38;17.20;;;16.10;57.40;;;;;;5032186;28;20242;-65
2022/12/04 01:40:59;;;;;;;18.55;16.48;;;16.10;57.20;;;;;;5031832;28;20172;-65
2022/12/04 01:43:25;;;;;;;19.02;16.58;;;16.10;57.30;;;;;;5032414;28;20583;-65
2022/12/04 01:45:55;;;;;;;19.48;16.90;;;16.10;57.20;;;;;;5033360;28;20646;-65
2022/12/04 01:48:45;;;;;;;18.30;16.35;;;16.10;57.20;;;;;;5051651;28;20190;-65
2022/12/04 01:51:16;;;;;;;20.33;17.65;;;16.10;57.20;;;;;;5052832;28;20270;-65
2022/12/04 01:53:44;;;;;;;20.10;17.42;;;16.10;57.20;;;;;;5051688;28;20681;-65
2022/12/04 01:56:09;;;;;;;19.80;16.77;;;16.10;57.30;;;;;;5047491;28;20178;-65
2022/12/04 01:58:38;;;;;;;19.27;17.27;;;16.00;57.10;;;;;;5032212;28;20259;-65
2022/12/04 02:01:04;;;;;;;19.20;17.02;;;16.00;57.10;;;;;;5031628;28;20180;-65
2022/12/04 02:03:29;;;;;;;20.17;17.25;;;16.00;57.10;;;;;;5030748;28;20180;-65
2022/12/04 02:05:55;;;;;;;20.13;17.83;;;16.00;57.10;;;;;;5034334;28;20198;-65
2022/12/04 02:08:20;;;;;;;18.00;15.90;;;16.00;57.10;;;;;;5055058;28;20194;-65
2022/12/04 02:11:01;;;;;;;19.15;17.08;;;16.00;57.10;;;;;;5055602;28;20194;-65
2022/12/04 02:13:51;;;;;;;22.27;17.20;;;16.00;57.10;;;;;;5053900;28;20178;-65
2022/12/04 02:16:45;;;;;;;18.45;16.48;;;15.90;57.10;;;;;;5049511;28;20634;-65
2022/12/04 02:19:16;;;;;;;21.13;18.48;;;15.90;57.20;;;;;;5027003;28;20270;-65
2022/12/04 02:21:42;;;;;;;18.77;16.83;;;15.90;57.10;;;;;;5035437;28;20208;-65
2022/12/04 02:24:25;;;;;;;22.80;17.60;;;15.90;57.10;;;;;;5034972;28;20179;-65
2022/12/04 02:27:05;;;;;;;20.88;18.15;;;15.90;57.10;;;;;;5041304;28;20722;-67
2022/12/04 02:29:40;;;;;;;18.50;16.60;;;15.90;57.10;;;;;;5053306;28;20225;-65
2022/12/04 02:32:14;;;;;;;20.23;16.90;;;15.90;57.10;;;;;;5054733;28;20503;-65
2022/12/04 02:34:50;;;;;;;19.70;17.33;;;15.80;57.00;;;;;;5054935;28;20306;-65
2022/12/04 02:37:23;;;;;;;19.50;17.40;;;15.80;57.00;;;;;;5042731;28;20186;-65
2022/12/04 02:40:13;;;;;;;20.92;17.02;;;15.80;57.00;;;;;;5033703;28;20612;-64
2022/12/04 02:42:40;;;;;;;21.42;17.58;;;15.80;57.20;;;;;;5033556;28;20665;-65
2022/12/04 02:45:07;;;;;;;20.30;18.08;;;15.80;57.00;;;;;;5033234;28;20175;-64
2022/12/04 02:47:33;;;;;;;19.42;17.33;;;15.80;57.20;;;;;;5046341;28;20209;-65
2022/12/04 02:49:59;;;;;;;20.45;18.13;;;15.80;57.00;;;;;;5053079;28;20622;-65
2022/12/04 02:52:35;;;;;;;19.77;17.00;;;15.80;57.00;;;;;;5053550;28;20179;-64
2022/12/04 02:55:09;;;;;;;20.02;17.67;;;15.70;57.00;;;;;;5054850;28;20222;-65
2022/12/04 02:57:38;;;;;;;20.00;17.67;;;15.80;57.20;;;;;;5039566;28;20692;-64
2022/12/04 03:00:07;;;;;;;22.30;18.23;;;15.70;57.00;;;;;;5033388;28;20223;-64
2022/12/04 03:02:54;;;;;;;22.10;17.73;;;15.70;57.00;;;;;;5033551;28;20180;-64
2022/12/04 03:05:47;;;;;;;20.42;17.88;;;15.70;57.00;;;;;;5033090;28;20179;-64
2022/12/04 03:08:16;;;;;;;19.58;17.48;;;15.70;57.00;;;;;;5051121;28;20190;-65
2022/12/04 03:10:53;;;;;;;19.98;17.88;;;15.70;57.20;;;;;;5052952;28;20183;-65
2022/12/04 03:13:34;;;;;;;22.70;18.52;;;15.70;57.50;;;;;;5052899;28;20181;-65
2022/12/04 03:16:07;;;;;;;19.77;17.25;;;15.70;57.20;;;;;;5053769;28;20191;-65
2022/12/04 03:18:38;;;;;;;19.83;17.67;;;15.70;57.40;;;;;;5031522;28;20215;-65
2022/12/04 03:21:10;;;;;;;21.77;17.75;;;15.60;57.30;;;;;;5033280;28;20266;-65
2022/12/04 03:23:55;;;;;;;19.73;17.70;;;15.60;57.20;;;;;;5033167;28;20194;-66
2022/12/04 03:26:23;;;;;;;21.60;18.80;;;15.60;57.10;;;;;;5043197;28;20191;-65
2022/12/04 03:28:54;;;;;;;20.58;18.23;;;15.60;57.10;;;;;;5052761;28;20179;-65
2022/12/04 03:31:24;;;;;;;21.63;18.30;;;15.60;57.40;;;;;;5053224;28;20179;-65
2022/12/04 03:33:49;;;;;;;19.80;16.98;;;15.60;57.20;;;;;;5052411;28;20253;-66
2022/12/04 03:36:24;;;;;;;21.63;17.27;;;15.60;57.20;;;;;;5052147;28;20585;-66
2022/12/04 03:38:57;;;;;;;19.73;17.70;;;15.60;57.20;;;;;;5032801;28;20258;-66
2022/12/04 03:41:51;;;;;;;20.20;17.63;;;15.60;57.50;;;;;;5033554;28;20654;-65
2022/12/04 03:44:21;;;;;;;21.75;17.27;;;15.60;57.30;;;;;;5031827;28;20227;-66
2022/12/04 03:47:08;;;;;;;20.23;18.13;;;15.50;57.10;;;;;;5037014;28;20211;-65
2022/12/04 03:49:44;;;;;;;20.38;17.92;;;15.50;57.20;;;;;;5052686;28;20182;-66
2022/12/04 03:52:14;;;;;;;20.65;17.80;;;15.50;57.30;;;;;;5052736;28;20297;-65
2022/12/04 03:54:45;;;;;;;19.50;17.13;;;15.50;57.40;;;;;;5051451;28;20575;-65
2022/12/04 03:57:17;;;;;;;19.30;17.30;;;15.50;57.60;;;;;;5044495;28;20187;-65
2022/12/04 03:59:57;;;;;;;20.42;18.10;;;15.50;57.30;;;;;;5032364;28;20186;-65
2022/12/04 04:02:24;;;;;;;21.52;19.23;;;15.50;57.20;;;;;;5031932;28;20618;-65
2022/12/04 04:04:51;;;;;;;21.67;18.60;;;15.50;57.00;;;;;;5033371;28;20630;-66
2022/12/04 04:07:25;;;;;;;23.48;18.80;;;15.40;57.30;;;;;;5041399;28;20176;-65
2022/12/04 04:09:55;;;;;;;23.27;19.40;;;15.40;57.20;;;;;;5052160;28;20245;-66
2022/12/04 04:12:23;;;;;;;20.55;18.25;;;15.40;56.80;;;;;;5052247;28;20203;-65
2022/12/04 04:26:07;;;;;;;20.33;18.13;;;15.40;57.00;;;;;;5033723;28;20204;-65
2022/12/04 04:28:39;;;;;;;20.33;18.10;;;15.40;56.90;;;;;;5049108;28;20254;-65
2022/12/04 04:31:26;;;;;;;20.08;17.05;;;15.30;56.60;;;;;;5053657;28;20582;-65
2022/12/04 04:34:00;;;;;;;20.27;17.80;;;15.40;56.80;;;;;;5052827;28;20203;-66
2022/12/04 04:36:55;;;;;;;19.15;17.13;;;15.30;57.00;;;;;;5052447;28;20182;-65
2022/12/04 04:39:34;;;;;;;20.35;17.63;;;15.30;56.90;;;;;;5053014;28;20179;-65
2022/12/04 04:42:05;;;;;;;19.67;17.58;;;15.30;56.90;;;;;;5052962;28;20175;-65
2022/12/04 04:44:45;;;;;;;21.55;18.63;;;15.30;56.90;;;;;;5050978;28;20179;-65
2022/12/04 04:47:15;;;;;;;21.42;17.92;;;15.30;57.00;;;;;;5045427;28;20175;-65
2022/12/04 04:49:41;;;;;;;20.77;18.45;;;15.30;57.00;;;;;;5030734;28;20648;-65
2022/12/04 04:52:06;;;;;;;20.00;17.92;;;15.30;56.90;;;;;;5031618;28;20254;-65
2022/12/04 04:54:32;;;;;;;22.75;18.55;;;15.20;56.70;;;;;;5031529;28;20215;-65
2022/12/04 04:56:58;;;;;;;21.63;18.90;;;15.20;56.80;;;;;;5049558;28;20182;-65
2022/12/04 04:59:23;;;;;;;20.75;18.55;;;15.20;56.90;;;;;;5052996;28;20174;-65
2022/12/04 05:01:49;;;;;;;21.33;18.75;;;15.20;56.90;;;;;;5052449;28;20180;-65
2022/12/04 05:04:14;;;;;;;21.17;18.85;;;15.20;56.80;;;;;;5052146;28;20181;-65
2022/12/04 05:06:40;;;;;;;20.45;18.25;;;15.20;56.90;;;;;;5036607;28;20188;-65
2022/12/04 05:09:05;;;;;;;19.77;17.77;;;15.20;57.00;;;;;;5032501;28;20174;-65
2022/12/04 05:11:31;;;;;;;20.58;17.80;;;15.20;56.80;;;;;;5031466;28;20187;-66
2022/12/04 05:13:56;;;;;;;22.60;20.20;;;15.20;56.90;;;;;;5032935;28;20212;-65
2022/12/04 05:16:22;;;;;;;22.38;19.17;;;15.20;56.70;;;;;;5045088;28;20183;-66
2022/12/04 05:21:32;;;;;;;20.38;18.15;;;15.20;56.70;;;;;;5052658;28;20328;-65
2022/12/04 05:23:57;;;;;;;21.65;18.73;;;15.10;56.60;;;;;;5052555;28;20705;-65
2022/12/04 05:26:23;;;;;;;20.38;17.60;;;15.10;56.70;;;;;;5039014;28;20172;-65
2022/12/04 05:28:49;;;;;;;20.17;18.10;;;15.10;56.70;;;;;;5032287;28;20266;-65
2022/12/04 05:31:14;;;;;;;21.52;17.92;;;15.10;56.70;;;;;;5032796;28;20520;-65
2022/12/04 05:33:40;;;;;;;20.10;17.92;;;15.10;56.70;;;;;;5031746;28;20684;-65
2022/12/04 05:36:06;;;;;;;19.83;17.77;;;15.10;56.70;;;;;;5042214;28;20179;-66
2022/12/04 05:38:32;;;;;;;20.58;18.38;;;15.10;56.70;;;;;;5052078;28;20175;-66
2022/12/04 05:40:58;;;;;;;20.95;18.00;;;15.10;56.60;;;;;;5054987;28;20179;-65
2022/12/04 05:43:24;;;;;;;20.92;18.73;;;15.10;56.50;;;;;;5056446;28;20198;-65
2022/12/04 05:45:49;;;;;;;20.15;17.77;;;15.00;56.70;;;;;;5047422;28;20182;-65
2022/12/04 05:48:15;;;;;;;19.80;17.30;;;15.00;56.60;;;;;;5035934;28;20176;-66
2022/12/04 05:50:40;;;;;;;20.83;18.00;;;15.00;56.50;;;;;;5035606;28;20180;-65
2022/12/04 05:53:06;;;;;;;19.48;17.48;;;15.00;56.60;;;;;;5035319;28;20533;-65
2022/12/04 05:55:31;;;;;;;20.05;17.40;;;15.00;56.60;;;;;;5040368;28;20695;-66
2022/12/04 05:57:57;;;;;;;22.75;18.60;;;15.00;56.70;;;;;;5055891;28;20186;-65
2022/12/04 06:00:22;;;;;;;21.75;19.25;;;15.00;56.60;;;;;;5055139;28;20178;-65
2022/12/04 06:02:48;;;;;;;19.75;17.65;;;15.00;56.50;;;;;;5055456;28;20178;-65
2022/12/04 06:05:13;;;;;;;21.27;18.48;;;15.00;56.60;;;;;;5053373;28;20699;-65
2022/12/04 06:07:39;;;;;;;19.90;17.30;;;15.00;56.60;;;;;;5034588;28;20237;-65
2022/12/04 06:10:05;;;;;;;19.40;17.30;;;15.00;56.90;;;;;;5035767;28;20178;-65
2022/12/04 06:12:30;;;;;;;19.00;17.00;;;15.00;57.20;;;;;;5035607;28;20183;-65
2022/12/04 06:14:56;;;;;;;19.05;17.02;;;15.00;57.30;;;;;;5035100;28;20211;-65
2022/12/04 06:17:21;;;;;;;20.55;18.17;;;15.10;57.60;;;;;;5054164;28;20645;-65
2022/12/04 06:19:47;;;;;;;19.52;17.27;;;15.10;57.50;;;;;;5054857;28;20223;-66
2022/12/04 06:22:12;;;;;;;18.90;16.90;;;15.20;57.20;;;;;;5054505;28;20257;-65
2022/12/04 06:24:38;;;;;;;18.88;16.98;;;15.20;56.90;;;;;;5055035;28;20186;-65
2022/12/04 06:27:04;;;;;;;18.40;16.50;;;15.30;56.60;;;;;;5038697;28;20176;-65
2022/12/04 06:29:30;;;;;;;18.98;17.08;;;15.40;56.40;;;;;;5034747;28;20207;-65
2022/12/04 06:31:55;;;;;;;19.08;16.90;;;15.50;56.00;;;;;;5034814;28;20634;-66
2022/12/04 06:34:21;;;;;;;17.85;15.95;;;15.60;55.80;;;;;;5035127;28;20245;-65
2022/12/04 06:36:46;;;;;;;17.60;15.85;;;15.80;55.70;;;;;;5046829;28;20225;-66
2022/12/04 06:39:12;;;;;;;16.63;14.90;;;15.80;55.60;;;;;;5055038;28;20221;-65
2022/12/04 06:41:37;;;;;;;17.92;15.45;;;15.90;55.50;;;;;;5055033;28;20229;-66
2022/12/04 06:44:03;;;;;;;17.15;15.32;;;16.00;55.30;;;;;;5054173;28;20550;-65
2022/12/04 06:46:30;;;;;;;16.50;14.80;;;16.00;55.30;;;;;;5045170;28;20179;-65
2022/12/04 06:48:56;;;;;;;16.95;14.18;;;16.10;55.20;;;;;;5034717;28;20184;-65
2022/12/04 06:51:23;;;;;;;16.60;14.80;;;16.10;55.10;;;;;;5032717;28;20233;-65
2022/12/04 06:53:49;;;;;;;15.75;13.75;;;16.20;55.00;;;;;;5034725;28;20290;-66
2022/12/04 06:56:17;;;;;;;16.90;14.80;;;16.20;55.00;;;;;;5040631;28;20206;-65
2022/12/04 06:58:50;;;;;;;16.40;14.65;;;16.20;55.00;;;;;;5054473;28;20542;-64
2022/12/04 07:01:17;;;;;;;16.05;14.52;;;16.30;54.90;;;;;;5054822;28;20558;-65
2022/12/04 07:03:42;;;;;;;15.88;14.18;;;16.40;54.90;;;;;;5053454;28;20174;-65
2022/12/04 07:06:18;;;;;;;14.90;13.32;;;16.40;54.70;;;;;;5048926;28;20186;-66
2022/12/04 07:08:44;;;;;;;15.75;13.85;;;16.40;54.70;;;;;;5034274;28;20321;-65
2022/12/04 07:11:10;;;;;;;14.95;13.45;;;16.40;54.60;;;;;;5033791;28;20643;-65
2022/12/04 07:13:35;;;;;;;16.23;14.50;;;16.50;54.50;;;;;;5035328;28;20187;-65
2022/12/04 07:16:02;;;;;;;15.18;13.57;;;16.50;54.60;;;;;;5034475;28;20219;-65
2022/12/04 07:18:28;;;;;;;15.48;13.82;;;16.50;54.70;;;;;;5032158;28;20231;-64
2022/12/04 07:20:54;;;;;;;16.00;14.30;;;16.50;54.80;;;;;;5033447;28;20187;-66
2022/12/04 07:23:19;;;;;;;14.77;13.27;;;16.50;54.70;;;;;;5043458;28;20262;-65
2022/12/04 07:25:45;;;;;;;16.83;14.75;;;16.70;54.50;;;;;;5052764;28;20623;-66
2022/12/04 07:28:10;;;;;;;14.40;12.98;;;16.70;54.40;;;;;;5054220;28;20179;-65
2022/12/04 07:30:36;;;;;;;14.88;13.30;;;16.80;54.20;;;;;;5053894;28;20179;-66
2022/12/04 07:33:02;;;;;;;15.70;14.05;;;16.90;54.30;;;;;;5045230;28;20667;-66
2022/12/04 07:35:28;;;;;;;15.48;13.85;;;16.90;54.00;;;;;;5034259;28;20242;-66
2022/12/04 07:37:53;;;;;;;15.95;13.38;;;17.00;54.10;;;;;;5034002;28;20175;-66
2022/12/04 07:40:19;;;;;;;14.57;13.18;;;17.00;53.90;;;;;;5033394;28;20538;-65
2022/12/04 07:42:44;;;;;;;14.13;12.70;;;17.10;53.90;;;;;;5038243;28;20644;-66
2022/12/04 07:45:10;;;;;;;14.48;12.95;;;17.10;53.90;;;;;;5053872;28;20175;-65
2022/12/04 07:47:35;;;;;;;13.98;12.57;;;17.00;54.10;;;;;;5052845;28;20182;-65
2022/12/04 07:50:02;;;;;;;13.70;12.32;;;17.00;54.10;;;;;;5054680;28;20191;-66
2022/12/04 07:52:27;;;;;;;15.60;13.35;;;17.00;54.10;;;;;;5050481;28;20341;-65
2022/12/04 07:54:53;;;;;;;13.40;11.75;;;17.00;54.00;;;;;;5033459;28;20730;-66
2022/12/04 07:57:18;;;;;;;14.02;12.48;;;17.10;54.10;;;;;;5033868;28;20171;-66
2022/12/04 07:59:44;;;;;;;14.30;12.80;;;17.10;54.00;;;;;;5032773;28;20167;-65
2022/12/04 08:02:11;;;;;;;14.00;12.27;;;17.10;54.00;;;;;;5033149;28;20168;-66
2022/12/04 08:04:37;;;;;;;13.45;12.15;;;17.00;54.10;;;;;;5053157;28;20175;-65
2022/12/04 08:07:02;;;;;;;14.55;12.63;;;17.00;54.10;;;;;;5052901;28;20194;-66
2022/12/04 08:09:28;;;;;;;14.73;12.73;;;17.00;54.20;;;;;;5053320;28;20182;-66
2022/12/04 08:11:53;;;;;;;14.25;12.50;;;17.00;54.20;;;;;;5053286;28;20314;-65
2022/12/04 08:14:19;;;;;;;13.43;12.02;;;17.00;54.20;;;;;;5034800;28;20202;-65
2022/12/04 08:16:44;;;;;;;14.50;13.00;;;16.90;54.20;;;;;;5033148;28;20182;-66
2022/12/04 08:19:10;;;;;;;13.75;12.30;;;16.80;54.30;;;;;;5031851;28;20694;-65
2022/12/04 08:21:35;;;;;;;13.82;12.32;;;16.70;54.40;;;;;;5032352;28;20182;-66
2022/12/04 08:24:01;;;;;;;14.60;13.15;;;16.70;54.60;;;;;;5047597;28;20278;-66
2022/12/04 08:26:28;;;;;;;14.27;12.82;;;16.60;54.60;;;;;;5053148;28;20195;-66
2022/12/04 08:28:54;;;;;;;14.10;12.60;;;16.60;54.80;;;;;;5052180;28;20183;-66
2022/12/04 08:31:24;;;;;;;13.70;12.30;;;16.70;54.90;;;;;;5052825;28;20589;-66
2022/12/04 08:33:50;;;;;;;14.80;12.85;;;16.70;54.80;;;;;;5039044;28;20211;-66
2022/12/04 08:36:18;;;;;;;14.02;12.63;;;16.60;54.80;;;;;;5032256;28;20257;-67
2022/12/04 08:38:43;;;;;;;14.80;13.30;;;16.60;54.80;;;;;;5032869;28;20255;-66
2022/12/04 08:41:11;;;;;;;14.48;12.98;;;16.50;55.00;;;;;;5033066;28;20653;-66
2022/12/04 08:43:36;;;;;;;13.63;12.23;;;16.50;55.00;;;;;;5042664;28;20179;-65
2022/12/04 08:46:04;;;;;;;14.60;13.07;;;16.40;55.10;;;;;;5052860;28;20178;-66
2022/12/04 08:48:29;;;;;;;14.10;12.55;;;16.30;55.30;;;;;;5052819;28;20649;-65
2022/12/04 08:50:55;;;;;;;15.10;12.95;;;16.30;55.40;;;;;;5051767;28;20183;-66
2022/12/04 08:53:20;;;;;;;14.75;13.20;;;16.30;55.40;;;;;;5044287;28;20179;-66
2022/12/04 08:55:46;;;;;;;12.90;11.57;;;16.30;55.50;;;;;;5031850;28;20215;-66
2022/12/04 08:58:12;;;;;;;14.05;12.65;;;16.30;55.40;;;;;;5032868;28;20175;-66
2022/12/04 09:00:37;;;;;;;14.27;12.65;;;16.30;55.30;;;;;;5032520;28;20199;-65
2022/12/04 09:03:03;;;;;;;14.63;12.98;;;16.30;55.30;;;;;;5032213;28;20176;-65
2022/12/04 09:05:29;;;;;;;14.30;12.80;;;16.30;55.30;;;;;;5041265;28;20194;-66
2022/12/04 09:07:54;;;;;;;14.73;13.15;;;16.30;55.40;;;;;;5052497;28;20181;-66
2022/12/04 09:10:20;;;;;;;13.80;12.40;;;16.20;55.40;;;;;;5051929;28;20630;-66
2022/12/04 09:12:45;;;;;;;14.80;13.20;;;16.10;55.60;;;;;;5052375;28;20177;-65
2022/12/04 09:15:11;;;;;;;15.50;12.32;;;16.10;55.90;;;;;;5054338;28;20214;-66
2022/12/04 09:17:36;;;;;;;13.73;12.23;;;16.10;56.00;;;;;;5055753;28;20171;-65
2022/12/04 09:20:06;;;;;;;14.40;12.90;;;16.10;55.80;;;;;;5045113;28;20223;-66
2022/12/04 09:22:35;;;;;;;14.23;12.60;;;16.10;55.90;;;;;;5036193;28;20700;-66
2022/12/04 09:25:00;;;;;;;15.15;13.63;;;16.10;55.70;;;;;;5052424;28;20238;-65
2022/12/04 09:27:26;;;;;;;13.85;12.40;;;16.10;55.70;;;;;;5056082;28;20591;-66
2022/12/04 09:29:52;;;;;;;13.52;12.13;;;16.20;55.70;;;;;;5056077;28;20698;-66
2022/12/04 09:32:17;;;;;;;13.68;12.15;;;16.20;55.60;;;;;;5055895;28;20182;-66
2022/12/04 09:34:43;;;;;;;13.90;12.52;;;16.20;55.60;;;;;;5055171;28;20277;-67
2022/12/04 09:37:08;;;;;;;13.25;11.85;;;16.20;55.50;;;;;;5056389;28;20179;-66
2022/12/04 09:39:34;;;;;;;13.82;12.23;;;16.20;55.40;;;;;;5055122;28;20536;-66
2022/12/04 09:42:21;;;;;;;13.02;11.75;;;16.20;55.40;;;;;;5056204;28;20186;-66
2022/12/04 09:44:58;;;;;;;12.48;11.18;;;16.20;55.40;;;;;;5055637;28;20186;-65
2022/12/04 09:47:31;;;;;;;14.98;12.52;;;16.10;55.80;;;;;;5054936;28;20182;-65
2022/12/04 09:50:21;;;;;;;17.80;12.98;;;16.10;56.00;;;;;;5050633;28;20191;-67
2022/12/04 09:52:49;;;;;;;18.13;12.45;;;16.00;56.20;;;;;;5034028;28;20175;-66
2022/12/04 09:55:37;;;;;;;15.18;12.57;;;16.00;56.30;;;;;;5035851;28;20246;-66
2022/12/04 09:58:04;;;;;;;17.15;12.80;;;16.00;56.40;;;;;;5035007;28;20259;-70
2022/12/04 10:00:30;;;;;;;16.00;11.77;;;16.00;56.90;;;;;;5033934;28;20180;-71
2022/12/04 10:03:00;;;;;;;14.30;12.43;;;16.00;56.70;;;;;;5034693;28;20642;-71
2022/12/04 10:05:45;;;;;;;16.25;12.27;;;16.10;57.00;;;;;;5048673;28;20215;-70
2022/12/04 10:08:34;;;;;;;16.65;12.60;;;16.10;57.20;;;;;;5055082;28;20197;-70
2022/12/04 10:11:18;;;;;;;15.70;11.73;;;16.20;57.40;;;;;;5055718;28;20267;-69
2022/12/04 10:13:59;;;;;;;14.02;11.90;;;16.20;57.60;;;;;;5053769;28;20171;-70
2022/12/04 10:16:34;;;;;;;14.02;11.80;;;16.30;57.70;;;;;;5055678;28;20182;-69
2022/12/04 10:19:21;;;;;;;15.32;11.52;;;16.30;57.80;;;;;;5049344;28;20210;-71
2022/12/04 10:22:08;;;;;;;13.85;11.27;;;16.30;57.90;;;;;;5033182;28;20184;-70
2022/12/04 10:24:37;;;;;;;14.18;12.52;;;16.30;58.00;;;;;;5035341;28;20180;-68
2022/12/04 10:27:10;;;;;;;15.88;11.55;;;16.20;58.10;;;;;;5035253;28;20306;-67
2022/12/04 10:29:35;;;;;;;14.88;10.52;;;16.20;58.10;;;;;;5034650;28;20657;-73
2022/12/04 10:32:25;;;;;;;15.05;11.93;;;16.20;58.30;;;;;;5034275;28;20176;-75
2022/12/04 10:34:53;;;;;;;14.57;11.07;;;16.20;58.10;;;;;;5033381;28;20226;-71
2022/12/04 10:37:18;;;;;;;13.45;10.85;;;16.20;58.10;;;;;;5033907;28;20642;-71
2022/12/04 10:39:47;;;;;;;15.70;11.13;;;16.20;58.00;;;;;;5033580;28;20207;-64
2022/12/04 10:42:24;;;;;;;14.32;11.10;;;16.30;58.00;;;;;;5034243;28;20171;-65
2022/12/04 10:44:50;;;;;;;15.85;11.07;;;16.30;57.90;;;;;;5033976;28;20180;-71
2022/12/04 10:47:16;;;;;;;13.15;10.80;;;16.40;57.90;;;;;;5054829;28;20186;-72
2022/12/04 10:49:41;;;;;;;17.83;10.32;;;16.30;57.80;;;;;;5053033;28;20175;-69
2022/12/04 10:52:14;;;;;;;14.00;11.50;;;16.30;57.90;;;;;;5054744;28;20171;-71
2022/12/04 10:54:48;;;;;;;14.73;10.90;;;16.30;57.90;;;;;;5053312;28;20288;-70
2022/12/04 10:57:14;;;;;;;13.15;10.32;;;16.30;57.90;;;;;;5052914;28;20189;-67
2022/12/04 10:59:53;;;;;;;15.27;9.40;;;16.30;57.80;;;;;;5052892;28;20167;-69
2022/12/04 11:02:29;;;;;;;13.70;10.23;;;16.20;58.10;;;;;;5034534;28;20218;-71
2022/12/04 11:05:00;;;;;;;11.55;10.02;;;16.20;58.10;;;;;;5033279;28;20168;-69
2022/12/04 11:07:31;;;;;;;13.10;9.93;;;16.20;58.10;;;;;;5033512;28;20183;-65
2022/12/04 11:09:58;;;;;;;12.63;9.60;;;16.30;58.10;;;;;;5032899;28;20176;-77
2022/12/04 11:12:24;;;;;;;15.02;10.73;;;16.30;58.10;;;;;;5034345;28;20306;-71
2022/12/04 11:15:11;;;;;;;13.25;10.02;;;16.30;57.90;;;;;;5038904;28;20294;-66
2022/12/04 11:17:37;;;;;;;12.98;10.07;;;16.40;57.90;;;;;;5046902;28;20175;-67
2022/12/04 11:20:08;;;;;;;15.32;10.02;;;16.40;58.00;;;;;;5053935;28;20707;-70
2022/12/04 11:22:35;;;;;;;13.73;9.70;;;16.40;57.70;;;;;;5052108;28;20252;-68
2022/12/04 11:25:00;;;;;;;12.50;9.40;;;16.40;57.90;;;;;;5046340;28;20179;-68
2022/12/04 11:27:31;;;;;;;11.20;9.25;;;16.40;57.90;;;;;;5049727;28;20213;-68
2022/12/04 11:30:00;;;;;;;10.07;8.95;;;16.40;57.80;;;;;;5049600;28;20552;-66
2022/12/04 11:32:28;;;;;;;19.02;10.70;;;16.30;57.90;;;;;;5034274;28;20175;-73
2022/12/04 11:34:56;;;;;;;11.50;8.45;;;16.40;58.10;;;;;;5032588;28;20220;-75
2022/12/04 11:37:34;;;;;;;17.30;9.50;;;16.40;58.10;;;;;;5031993;28;20662;-73
2022/12/04 11:40:04;;;;;;;18.70;10.05;;;16.40;58.30;;;;;;5034214;28;20642;-70
2022/12/04 11:42:30;;;;;;;16.38;9.43;;;16.30;58.40;;;;;;5052485;28;20254;-70
2022/12/04 11:45:00;;;;;;;14.60;9.00;;;16.30;58.20;;;;;;5053060;28;20305;-67
2022/12/04 11:47:29;;;;;;;20.55;9.38;;;16.20;58.10;;;;;;5054028;28;20168;-71
2022/12/04 11:50:10;;;;;;;17.77;11.00;;;16.10;58.10;;;;;;5053635;28;20194;-70
2022/12/04 11:53:06;;;;;;;13.10;10.43;;;16.10;57.80;;;;;;5052309;28;20182;-69
2022/12/04 11:56:01;;;;;;;14.80;9.85;;;16.00;56.40;;;;;;5051562;28;20232;-69
2022/12/04 11:58:49;;;;;;;12.80;9.85;;;15.90;57.10;;;;;;5051119;28;20245;-69
2022/12/04 12:01:35;;;;;;;14.70;10.48;;;15.90;57.30;;;;;;5051297;28;20175;-68
2022/12/04 12:04:03;;;;;;;18.85;9.90;;;15.80;57.20;;;;;;5051097;28;20182;-69
2022/12/04 12:06:30;;;;;;;13.45;10.18;;;15.80;57.30;;;;;;5051722;28;20206;-69
2022/12/04 12:09:22;;;;;;;13.13;9.43;;;15.80;57.50;;;;;;5051737;28;20611;-68
2022/12/04 12:11:55;;;;;;;13.15;9.38;;;15.70;57.30;;;;;;5052215;28;20703;-69
2022/12/04 12:14:31;;;;;;;10.90;9.20;;;15.70;57.50;;;;;;5051355;28;20218;-68
2022/12/04 12:17:20;;;;;;;16.75;9.50;;;15.60;57.30;;;;;;5053537;28;20525;-68
2022/12/04 12:19:54;;;;;;;12.18;9.13;;;15.60;57.50;;;;;;5050985;28;20226;-69
2022/12/04 12:22:24;;;;;;;12.65;9.02;;;15.50;57.10;;;;;;5052068;28;20190;-69
2022/12/04 12:25:26;;;;;;;10.63;9.40;;;15.50;57.60;;;;;;5052945;28;20721;-69
2022/12/04 12:28:12;;;;;;;13.95;9.35;;;15.50;57.60;;;;;;5051272;28;20220;-69
2022/12/04 12:30:52;;;;;;;13.82;9.90;;;15.50;57.60;;;;;;5051891;28;20175;-69
2022/12/04 12:33:20;;;;;;;12.70;9.38;;;15.40;57.00;;;;;;5053308;28;20171;-69
2022/12/04 12:36:07;;;;;;;10.68;9.25;;;15.40;57.30;;;;;;5052179;28;20245;-68
2022/12/04 12:38:50;;;;;;;11.55;9.38;;;15.40;57.50;;;;;;5051670;28;20240;-68
2022/12/04 12:41:18;;;;;;;10.05;9.05;;;15.30;57.00;;;;;;5050957;28;20179;-69
2022/12/04 12:43:47;;;;;;;11.48;8.70;;;15.30;57.30;;;;;;5052777;28;20179;-69
2022/12/04 12:46:30;;;;;;;10.40;9.25;;;15.30;57.20;;;;;;5051965;28;20175;-69
2022/12/04 12:49:12;;;;;;;10.95;9.68;;;15.30;57.00;;;;;;5052255;28;20210;-69
2022/12/04 12:51:51;;;;;;;9.85;8.65;;;15.20;57.30;;;;;;5051517;28;20171;-69
2022/12/04 12:54:43;;;;;;;10.43;8.60;;;15.20;56.90;;;;;;5052990;28;20221;-69
2022/12/04 12:57:20;;;;;;;11.35;8.68;;;15.20;57.10;;;;;;5049069;28;20187;-69